Airfield :
LOGIN :

Register | Disclaimer

   EN    FR    IT 

 










Legend :    VFR   Marginal VFR   IFR   Intensive IFR   Very Intensive IFR
Visi :
Ceiling :
>= 8 km
>= 3000ft
5 to 8 km
1000 to 3000 ft
1500m to 5 km
500 to 1000 ft
800 to 1500m
200 to 500 ft
< 800m
< 200 ft
Symbols :   Thunderstorms  Fog  Heavy snow  Heavy precipitations  Wind > 20 kt
SIGMETs :     Misc.  Thunderstorms  Icing  Turbulence  Mountain Waves  Volcanic Ashes






- Airport Elevation : 645 ft
- IATA code : DLE


LFGJ - Dole Tavaux

CURRENT METAR :
  • 200000Z AUTO 30004KT 280V350 9999 FEW044 BKN050 BKN072 07/06 Q1018

EXPIRED METARs :
  • 192330Z AUTO 32004KT 280V350 9999 SCT022 OVC066 07/06 Q1018
  • 192300Z AUTO 26003KT 9999 FEW024 SCT052 BKN078 07/06 Q1018
  • 192230Z AUTO 25004KT 9999 //////TCU 07/06 Q1017
  • 192200Z AUTO 00000KT 9999 FEW047/// BKN054/// BKN076/// //////TCU 07/06 Q1017
  • 192130Z AUTO VRB02KT 9999 -RA FEW045/// BKN060/// OVC074/// //////TCU 07/06 Q1017
  • 192100Z AUTO VRB02KT 9999 SCT043/// OVC056/// ///TCU 07/06 Q1017
  • 192030Z AUTO 01008KT 340V040 7000 -RA SCT034/// OVC045/// //////TCU 07/06 Q1017
  • 192000Z AUTO 32012G23KT 260V030 9999 4000 +RA FEW013/// BKN029/// OVC040/// ///TCU 08/06 Q1017
  • 191930Z AUTO 27006KT 9999 SCT031/// BKN041/// OVC049/// //////CB 10/07 Q1016
  • 191900Z AUTO 23002KT 9999 -DZ OVC044/// ///TCU 09/08 Q1016

Expired Forecast.



MET'MAP, your aeronautical weather chart ! - Copyright ORBIFLY December 2007 - Disclaimer

ORBIFLY MET'MAP TEAM :

Programming & Development : Alexandra Zaïnal
Original concept : Baudouin d'Aumeries
Technical & hardware support : Manuel Goepfert
Assistance : Marc-Olivier Méhu




SOURCES & CREDITS :

   NOAA